Airfield :
LOGIN :

Register | Disclaimer

   EN    FR    IT 

 










Legend :    VFR   Marginal VFR   IFR   Intensive IFR   Very Intensive IFR
Visi :
Ceiling :
>= 8 km
>= 3000ft
5 to 8 km
1000 to 3000 ft
1500m to 5 km
500 to 1000 ft
800 to 1500m
200 to 500 ft
< 800m
< 200 ft
Symbols :   Thunderstorms  Fog  Heavy snow  Heavy precipitations  Wind > 20 kt
SIGMETs :     Misc.  Thunderstorms  Icing  Turbulence  Mountain Waves  Volcanic Ashes







- Airport Elevation : 1910 ft
- IATA code : RDZ
- Download approach charts


LFCR - Rodez

CURRENT METAR :
  • 210100Z AUTO 13005KT 7000 NSC 12/11 Q1019 TEMPO 0600 FG VV///

EXPIRED METARs :
  • 210030Z AUTO 11003KT CAVOK 12/10 Q1020 TEMPO 0600 FG VV///
  • 210000Z AUTO 11006KT CAVOK 13/11 Q1020 TEMPO 4000 BR
  • 202330Z AUTO 12006KT CAVOK 13/12 Q1020 TEMPO 4000 BR
  • 202300Z AUTO 12006KT CAVOK 14/12 Q1020 TEMPO 4000 BR
  • 202230Z AUTO 11006KT CAVOK 14/12 Q1020 TEMPO 4000 BR

TAF TAF LFCR
Valid from the 21 at 00:00 until the 22 at 00:00 UTC


202300Z 2100/2124 13005KT 7000 NSC
TEMPO 2100/2107 4000 BR
PROB30
TEMPO 2102/2107 0600 FG VV///
BECMG 2109/2111 27012KT BKN008
TEMPO 2112/2119 SCT018
TEMPO 2120/2124 1500 -DZ OVC004
No reported NOTAMs for that airfield.



MET'MAP, your aeronautical weather chart ! - Copyright ORBIFLY December 2007 - Disclaimer

ORBIFLY MET'MAP TEAM :

Programming & Development : Alexandra Zaïnal
Concept & Development : Baudouin d'Aumeries
Co-Development & Prog : Marc-Olivier Méhu
Technical & hardware support : Manuel Goepfert

Contact : metmap@orbifly.com




SOURCES & CREDITS :

   NOAA